LiveATC.Net - Listen to live air traffic control over the Internet!

Airport/ARTCC Code
Frequency Search
(e.g., 124.400, 128.75)
Site-wide search
 


Browse Feeds
Top 50 Feeds
HF Oceanic Feeds
Coverage Map
Bad Weather Areas

LiveATC FAQ
Offer LiveATC feed
Contact LiveATC.net
Press Inquiries

LiveATC on iPhone
LiveATC on Android

Windows Phone
Windows 8/10

LiveATC Mobile
(Mobile browser)

ATC Audio Archives
Interesting Recordings

LiveATC Forums

Home Page
About LiveATC.net
Make a Donation
Terms of Use
Privacy Policy

Canadian Air Freqs

AIRMETs/SIGMETs

FAA Airport Status
NAS Status
Arrival Demand


Server Software By:
Icecast.org
Liquidsoap


Current Potentially Bad Weather Airports
(updated every 30 minutes - sorted alphabetically by ICAO code)



This page lists LiveATC.net airport areas that may be interesting to listen to because of challenging flying (weather) conditions. Challenging weather conditions include low ceilings, limited visibility, high or gusty winds, or thunderstorms.

Updated: Thu Jun 17 22:40:01 UTC 2021
Click on airport name to go to that airport area's feeds.

CYFB CTAF/RDO Iqaluit Airport (Iqaluit, CA-NU)
WX MAP UNAVAILABLENearest METAR:
CYFB 172214Z 14009G15KT 6SM BR OVC004 01/00 A2960 RMK ST8 SLP027
EHKD ATIS De Kooy Airfield (Den Helder, Netherlands)
WX MAP UNAVAILABLENearest METAR:
EHKD 172225Z AUTO 34004KT 290V030 9999 OVC003 17/16 Q1014 YLO
ENGM App/Polaris ACC Eggemoen Airport (Honefoss, Norway)
WX MAP UNAVAILABLENearest METAR:
ENGM 172220Z 20005KT 130V250 4000 TSRA SCT019CB OVC034 17/16 Q1013
ENHD Tower Haugesund Karmoy Airport (Haugesund, Norway)
WX MAP UNAVAILABLENearest METAR:
ENHD 172220Z AUTO 33005KT 2000 -DZ VV002 13/13 Q1011 REUP
ENZV Gnd/Twr/App Stavanger Sola Airport (Stavanger, Norway)
WX MAP UNAVAILABLENearest METAR:
ENZV 172220Z 34003KT 300V010 2600 -DZ VV004 14/14 Q1011
KAMW CTAF Ames Municipal Airport (Ames, US-IA)
kamwNearest METAR:
KAMW 172153Z AUTO 24013G21KT 10SM CLR 37/14 A2978 RMK AO2 LTG DSNT N AND NE SLP073 T03670144
KAPF Ft Myers App/Dep Naples Municipal Airport (Naples, US-FL)
kapfNearest METAR:
KAPF 172153Z 05006KT 10SM FEW060 BKN100 27/24 A3000 RMK AO2 LTG DSNT SE SLP159 T02670239 $
KCFJ CTAF Crawfordsville Regional Airport (Crawfordsville, US-IN)
kcfjNearest METAR:
KCFJ 172215Z AUTO 00000KT 10SM CLR 29/09 A2997 RMK AO2 LTG DSNT NW T02850090
KCID Gnd/Twr/App/KIOW The Eastern Iowa Airport (Cedar Rapids, US-IA)
kiowNearest METAR:
KIOW 172227Z AUTO 19007KT 10SM VCTS CLR 33/18 A2983 RMK AO2 LTG DSNT ALQDS T03330183
KCOS Gnd/Twr/App/Dep City of Colorado Springs Municipal Airport (Colorado Springs, US-CO)
kcosNearest METAR:
KCOS 172154Z 17007KT 150V210 10SM SCT120 SCT160 BKN220 33/02 A3012 RMK AO2 LTG DSNT W AND NW SLP095 CB DSNT W-NW MOV SE T03330017
KOFF Gnd/Twr/App/ZMP Offutt Air Force Base (Omaha, US-NE)
koffNearest METAR:
KOFF 172156Z 22014G21KT 10SM CLR 39/16 A2974 RMK AO2A SLP045 ALSTG/SLP ESTMD WND DATA ESTMD T03920159 RVRNO $
KOSH Gnd/Twr/App #2 Wittman Regional Airport (Oshkosh, US-WI)
koshNearest METAR:
KOSH 172221Z 19015G21KT 10SM VCTS FEW095 FEW120 28/15 A2977 RMK AO2 LTG DSNT NW T02830150
KPRC Practice Area Ernest A. Love Field Airport (Prescott, US-AZ)
kprcNearest METAR:
KPRC 172153Z 26009G17KT 10SM BKN120 36/03 A3002 RMK AO2 LTG DSNT N SLP056 T03610028
KPSO CTAF/Guard Stevens Field Airport (Pagosa Springs, US-CO)
kpsoNearest METAR:
KPSO 172215Z AUTO 33011G21KT 10SM VCTSRA OVC080 22/04 A3035 RMK AO2 LTG DSNT N AND SW T02240035
C77/1C8/KFEP CTAF Cottonwood Airport (Rockford, US-IL)
kfepNearest METAR:
KFEP 172215Z AUTO 19013G16KT 10SM VCTS CLR 31/16 A2985 RMK AO2 LTG DSNT W THRU N T03140158
KSBA Tower Santa Barbara Municipal Airport (Santa Barbara, US-CA)
ksbaNearest METAR:
KSBA 172153Z 15007KT 1SM R07/P6000FT HZ OVC002 19/16 A2981 RMK AO2 SLP094 T01940161
KSLN Ground/Tower Salina Regional Airport (Salina, US-KS)
kslnNearest METAR:
KSLN 172153Z 19023G30KT 10SM CLR 41/11 A2984 RMK AO2 PK WND 20030/2152 SLP085 T04060111
SOCAL App (Zuma Sector) Los Angeles International Airport (Los Angeles, US-CA)
ksmoNearest METAR:
KSMO 172151Z 24008KT 10SM OVC006 19/16 A2980 RMK AO2 SLP091 T01940161
KWDR/KCVC/KCNI CTAF Barrow County Airport (Winder, US-GA)
kwdrNearest METAR:
KWDR 172215Z AUTO 00000KT 10SM CLR 29/07 A3004 RMK AO2 LTG DSNT NW
LFSB Tower EuroAirport Basel-Mulhouse-Freiburg (Basel, Switzerland)
WX MAP UNAVAILABLENearest METAR:
LFSB 172200Z AUTO 27014KT CAVOK 26/16 Q1013 TEMPO 27020G30KT 3000 TSRA FEW080CB
MHTG Gnd/Twr/App/Ctr/Ops Toncontin International Airport (Tegucigalpa, Honduras)
WX MAP UNAVAILABLENearest METAR:
MHTG 172200Z 01004KT 8000 4000NW -TSRA SCT030TCU FEW032CB SCT080 23/20 Q1014 A2994 NOSIG
MMMX Twr/App Licenciado Benito Juarez International Airport (Mexico City, Mexico)
WX MAP UNAVAILABLENearest METAR:
MMMX 172147Z 02012KT 10SM BKN015TCU 21/10 A3018 TEMPO 5SM TSRA RMK 8/200
PHOG Del/Gnd/Twr/App Kahului Airport (Maui) (Kahului, US-HI)
phogNearest METAR:
PHOG 172154Z 05024G30KT 10SM FEW020 SCT035 SCT050 28/19 A3005 RMK AO2 PK WND 06030/2117 SLP180 T02830189
SBBE Twr/App/SBAZ Val de Cans International Airport (Belem, Brazil)
WX MAP UNAVAILABLENearest METAR:
SBBE 172200Z 08012KT 9000 -TSRA SCT025 FEW027CB BKN070 25/23 Q1012
VTSS Approach Hat Yai International Airport (Songkhla, Thailand)
WX MAP UNAVAILABLENearest METAR:
VTSS 172200Z 00000KT 0300 R26///// FG VV002 23/23 Q1011 NOSIG
YMIA CTAF Mildura Airport (Mildura, AU-VIC)
WX MAP UNAVAILABLENearest METAR:
YMIA 172230Z AUTO 25006KT 9999 // OVC006 10/10 Q1014